Time;durP1;ratioP1;P1;durP2;ratioP2;P2;SDS_P1;SDS_P2;PMS_P1;PMS_P2;Temp;Humidity;BMP_temperature;BMP_pressure;BME280_temperature;BME280_humidity;BME280_pressure;Samples;Min_cycle;Max_cycle;Signal;HPM_P1;HPM_P2
2023/12/24 00:02:16;;;;;;;22.93;5.40;;;;;;;;;;5031357;28;20103;-66
2023/12/24 00:04:42;;;;;;;24.03;5.70;;;;;;;;;;5030779;28;20111;-66
2023/12/24 00:07:08;;;;;;;24.33;5.37;;;;;;;;;;5030126;28;20151;-66
2023/12/24 00:09:34;;;;;;;19.13;4.73;;;;;;;;;;5031569;28;20046;-66
2023/12/24 00:12:00;;;;;;;28.03;5.57;;;;;;;;;;5032112;28;20081;-65
2023/12/24 00:14:26;;;;;;;25.20;5.23;;;;;;;;;;5031573;28;20049;-66
2023/12/24 00:16:52;;;;;;;19.33;5.20;;;;;;;;;;5030579;28;20160;-65
2023/12/24 00:19:18;;;;;;;23.33;4.90;;;;;;;;;;5031037;28;20128;-66
2023/12/24 00:21:44;;;;;;;25.67;5.90;;;;;;;;;;5031147;28;20129;-65
2023/12/24 00:24:10;;;;;;;17.37;4.67;;;;;;;;;;5031174;28;20366;-65
2023/12/24 00:26:36;;;;;;;17.23;4.27;;;;;;;;;;5030544;28;20049;-66
2023/12/24 00:29:03;;;;;;;22.40;4.87;;;;;;;;;;5030918;28;20041;-66
2023/12/24 00:31:29;;;;;;;19.00;4.50;;;;;;;;;;5030662;28;20059;-65
2023/12/24 00:33:55;;;;;;;16.57;5.00;;;;;;;;;;5030734;28;20049;-65
2023/12/24 00:36:21;;;;;;;22.67;4.93;;;;;;;;;;5031114;28;20041;-65
2023/12/24 00:38:49;;;;;;;15.63;4.50;;;;;;;;;;5030878;28;20046;-65
2023/12/24 00:41:16;;;;;;;22.00;5.63;;;;;;;;;;5030439;28;20568;-65
2023/12/24 00:43:42;;;;;;;24.33;5.30;;;;;;;;;;5030012;28;20085;-65
2023/12/24 00:46:08;;;;;;;17.77;4.60;;;;;;;;;;5029741;28;20045;-65
2023/12/24 00:48:34;;;;;;;16.83;3.63;;;;;;;;;;5030623;28;20049;-65
2023/12/24 00:51:01;;;;;;;21.93;5.03;;;;;;;;;;5045693;28;20053;-65
2023/12/24 00:53:27;;;;;;;25.13;4.73;;;;;;;;;;5030570;28;20046;-65
2023/12/24 00:55:53;;;;;;;25.47;5.23;;;;;;;;;;5029246;28;20061;-65
2023/12/24 00:58:19;;;;;;;31.50;6.43;;;;;;;;;;5029553;28;20404;-65
2023/12/24 01:00:46;;;;;;;29.80;7.60;;;;;;;;;;5030553;28;20091;-65
2023/12/24 01:03:13;;;;;;;15.63;4.50;;;;;;;;;;5030736;28;20057;-65
2023/12/24 01:05:39;;;;;;;19.37;3.80;;;;;;;;;;5030277;28;20443;-65
2023/12/24 01:08:05;;;;;;;15.53;3.93;;;;;;;;;;5030703;28;20042;-65
2023/12/24 01:10:31;;;;;;;14.90;4.23;;;;;;;;;;5030485;28;20586;-65
2023/12/24 01:12:57;;;;;;;22.53;4.63;;;;;;;;;;5030229;28;20049;-65
2023/12/24 01:15:23;;;;;;;17.13;4.17;;;;;;;;;;5029819;28;20073;-66
2023/12/24 01:17:49;;;;;;;24.17;4.47;;;;;;;;;;5029511;28;20634;-65
2023/12/24 01:20:16;;;;;;;22.40;4.87;;;;;;;;;;5029719;28;20045;-65
2023/12/24 01:22:42;;;;;;;18.47;3.50;;;;;;;;;;5030209;28;20041;-65
2023/12/24 01:25:09;;;;;;;24.70;4.67;;;;;;;;;;5030541;28;20136;-65
2023/12/24 01:27:35;;;;;;;19.23;3.70;;;;;;;;;;5029711;28;20132;-65
2023/12/24 01:30:02;;;;;;;21.13;4.30;;;;;;;;;;5045618;28;20073;-65
2023/12/24 01:32:28;;;;;;;15.93;3.93;;;;;;;;;;5029379;28;20521;-65
2023/12/24 01:34:54;;;;;;;21.03;4.17;;;;;;;;;;5029221;28;20538;-65
2023/12/24 01:37:20;;;;;;;14.40;2.97;;;;;;;;;;5029692;28;20081;-66
2023/12/24 01:39:46;;;;;;;21.03;4.43;;;;;;;;;;5029880;28;20656;-66
2023/12/24 01:42:12;;;;;;;14.57;3.67;;;;;;;;;;5029591;28;20046;-65
2023/12/24 01:44:38;;;;;;;19.90;4.73;;;;;;;;;;5029526;28;20111;-66
2023/12/24 01:47:04;;;;;;;13.03;3.70;;;;;;;;;;5029629;28;20060;-66
2023/12/24 01:49:31;;;;;;;17.97;4.07;;;;;;;;;;5029492;28;20411;-65
2023/12/24 01:51:57;;;;;;;18.27;3.53;;;;;;;;;;5029332;28;20033;-65
2023/12/24 01:54:23;;;;;;;22.30;3.90;;;;;;;;;;5029706;28;20049;-65
2023/12/24 01:56:49;;;;;;;23.03;4.30;;;;;;;;;;5029259;28;20038;-65
2023/12/24 01:59:16;;;;;;;22.20;4.83;;;;;;;;;;5029070;28;20056;-66
2023/12/24 02:01:42;;;;;;;22.53;5.30;;;;;;;;;;5027838;28;20488;-66
2023/12/24 02:04:08;;;;;;;19.97;4.57;;;;;;;;;;5029082;28;20053;-65
2023/12/24 02:06:34;;;;;;;12.30;4.70;;;;;;;;;;5029464;28;20633;-65
2023/12/24 02:09:00;;;;;;;17.77;5.10;;;;;;;;;;5029488;28;20490;-66
2023/12/24 02:11:26;;;;;;;16.03;4.73;;;;;;;;;;5027264;28;20347;-66
2023/12/24 02:13:52;;;;;;;18.47;6.93;;;;;;;;;;5029375;28;20050;-66
2023/12/24 02:16:23;;;;;;;17.17;5.63;;;;;;;;;;5028880;28;20102;-66
2023/12/24 02:18:49;;;;;;;18.13;5.57;;;;;;;;;;5028864;28;20087;-66
2023/12/24 02:21:15;;;;;;;16.33;5.53;;;;;;;;;;5029205;28;20048;-66
2023/12/24 02:23:41;;;;;;;16.90;5.83;;;;;;;;;;5026874;28;20041;-66
2023/12/24 02:26:12;;;;;;;14.87;6.30;;;;;;;;;;5027616;28;20077;-66
2023/12/24 02:28:40;;;;;;;22.40;6.43;;;;;;;;;;5028901;28;20088;-66
2023/12/24 02:31:08;;;;;;;18.50;5.97;;;;;;;;;;5028850;28;20463;-66
2023/12/24 02:33:40;;;;;;;14.17;6.50;;;;;;;;;;5028320;28;20092;-66
2023/12/24 02:36:07;;;;;;;17.13;6.70;;;;;;;;;;5027632;28;20386;-66
2023/12/24 02:38:33;;;;;;;13.97;6.47;;;;;;;;;;5028174;28;20052;-66
2023/12/24 02:40:59;;;;;;;17.03;8.27;;;;;;;;;;5028686;28;20045;-66
2023/12/24 02:43:25;;;;;;;24.97;8.87;;;;;;;;;;5027566;28;20597;-66
2023/12/24 02:45:51;;;;;;;24.37;8.57;;;;;;;;;;5028056;28;20054;-66
2023/12/24 02:48:17;;;;;;;22.17;9.27;;;;;;;;;;5028425;28;20510;-66
2023/12/24 02:50:44;;;;;;;24.57;8.73;;;;;;;;;;5028013;28;20038;-66
2023/12/24 02:53:10;;;;;;;17.30;8.83;;;;;;;;;;5028371;28;20057;-66
2023/12/24 02:55:37;;;;;;;22.00;9.73;;;;;;;;;;5028509;28;20052;-66
2023/12/24 02:58:03;;;;;;;26.80;9.53;;;;;;;;;;5026894;28;20038;-67
2023/12/24 03:00:29;;;;;;;20.67;8.97;;;;;;;;;;5028423;28;20049;-66
2023/12/24 03:02:55;;;;;;;18.30;9.13;;;;;;;;;;5027332;28;20110;-66
2023/12/24 03:05:21;;;;;;;22.00;9.97;;;;;;;;;;5028938;28;20053;-66
2023/12/24 03:07:47;;;;;;;18.53;8.83;;;;;;;;;;5027234;28;20053;-66
2023/12/24 03:10:13;;;;;;;26.00;9.73;;;;;;;;;;5027925;28;20056;-66
2023/12/24 03:12:39;;;;;;;24.90;10.30;;;;;;;;;;5026150;28;20045;-66
2023/12/24 03:15:06;;;;;;;23.17;10.40;;;;;;;;;;5026998;28;20053;-66
2023/12/24 03:17:32;;;;;;;22.73;10.80;;;;;;;;;;5028606;28;20052;-66
2023/12/24 03:19:58;;;;;;;19.23;9.33;;;;;;;;;;5028295;28;20099;-66
2023/12/24 03:22:24;;;;;;;25.70;9.67;;;;;;;;;;5030992;28;20053;-66
2023/12/24 03:24:50;;;;;;;23.37;9.87;;;;;;;;;;5032255;28;20052;-66
2023/12/24 03:27:16;;;;;;;20.03;8.70;;;;;;;;;;5031903;28;20041;-66
2023/12/24 03:29:43;;;;;;;16.93;8.20;;;;;;;;;;5031349;28;20057;-66
2023/12/24 03:32:09;;;;;;;14.83;7.70;;;;;;;;;;5032342;28;20088;-66
2023/12/24 03:34:35;;;;;;;21.03;8.43;;;;;;;;;;5032339;28;20533;-66
2023/12/24 03:37:01;;;;;;;20.30;7.67;;;;;;;;;;5030655;28;20415;-66
2023/12/24 03:39:27;;;;;;;22.00;8.33;;;;;;;;;;5032399;28;20049;-66
2023/12/24 03:41:53;;;;;;;20.87;7.90;;;;;;;;;;5032288;28;20080;-66
2023/12/24 03:44:19;;;;;;;18.87;6.97;;;;;;;;;;5030696;28;20058;-66
2023/12/24 03:46:45;;;;;;;20.60;7.73;;;;;;;;;;5032252;28;20041;-66
2023/12/24 03:49:11;;;;;;;20.67;7.13;;;;;;;;;;5032128;28;21056;-66
2023/12/24 03:51:37;;;;;;;9.40;5.20;;;;;;;;;;5031862;28;20072;-66
2023/12/24 03:54:03;;;;;;;15.03;7.03;;;;;;;;;;5029406;28;20085;-66
2023/12/24 03:56:30;;;;;;;13.10;5.20;;;;;;;;;;5031682;28;20095;-66
2023/12/24 03:58:56;;;;;;;15.00;5.43;;;;;;;;;;5031797;28;20060;-66
2023/12/24 04:01:25;;;;;;;13.77;5.20;;;;;;;;;;5030274;28;20054;-66
2023/12/24 04:03:52;;;;;;;13.93;5.00;;;;;;;;;;5031595;28;20060;-66
2023/12/24 04:06:18;;;;;;;9.03;5.03;;;;;;;;;;5031737;28;20045;-66
2023/12/24 04:08:44;;;;;;;9.97;5.40;;;;;;;;;;5031694;28;20045;-66
2023/12/24 04:11:13;;;;;;;10.97;4.50;;;;;;;;;;5031666;28;20057;-66
2023/12/24 04:13:40;;;;;;;8.13;4.63;;;;;;;;;;5031669;28;20041;-66
2023/12/24 04:16:06;;;;;;;11.80;5.13;;;;;;;;;;5029878;28;20053;-66
2023/12/24 04:18:32;;;;;;;8.53;5.07;;;;;;;;;;5031405;28;20424;-66
2023/12/24 04:20:58;;;;;;;9.47;4.93;;;;;;;;;;5031748;28;20558;-66
2023/12/24 04:23:24;;;;;;;8.43;4.30;;;;;;;;;;5030900;28;20065;-66
2023/12/24 04:25:50;;;;;;;9.73;5.00;;;;;;;;;;5029761;28;20037;-66
2023/12/24 04:28:16;;;;;;;11.17;4.77;;;;;;;;;;5031164;28;20049;-66
2023/12/24 04:30:43;;;;;;;12.97;5.37;;;;;;;;;;5030666;28;20060;-66
2023/12/24 04:33:09;;;;;;;9.07;4.43;;;;;;;;;;5029320;28;20072;-66
2023/12/24 04:35:35;;;;;;;12.20;5.50;;;;;;;;;;5031233;28;20049;-66
2023/12/24 04:38:01;;;;;;;11.03;4.70;;;;;;;;;;5031239;28;20057;-66
2023/12/24 04:40:27;;;;;;;11.40;4.70;;;;;;;;;;5031088;28;20048;-66
2023/12/24 04:42:53;;;;;;;10.77;4.67;;;;;;;;;;5030132;28;20080;-66
2023/12/24 04:45:19;;;;;;;10.87;4.50;;;;;;;;;;5031082;28;20072;-66
2023/12/24 04:47:45;;;;;;;10.73;4.63;;;;;;;;;;5029326;28;20057;-65
2023/12/24 04:50:11;;;;;;;10.20;4.60;;;;;;;;;;5031050;28;20050;-66
2023/12/24 04:52:38;;;;;;;11.80;5.20;;;;;;;;;;5030551;28;20048;-65
2023/12/24 04:55:08;;;;;;;9.00;4.20;;;;;;;;;;5030962;28;20583;-66
2023/12/24 04:57:34;;;;;;;10.23;4.47;;;;;;;;;;5029789;28;20037;-66
2023/12/24 05:00:00;;;;;;;10.20;4.53;;;;;;;;;;5030262;28;20076;-66
2023/12/24 05:02:26;;;;;;;9.30;4.73;;;;;;;;;;5030564;28;20049;-66
2023/12/24 05:04:54;;;;;;;8.63;4.40;;;;;;;;;;5030716;28;20050;-66
2023/12/24 05:07:20;;;;;;;8.47;4.30;;;;;;;;;;5030694;28;20049;-66
2023/12/24 05:09:46;;;;;;;9.97;4.30;;;;;;;;;;5030070;28;20050;-66
2023/12/24 05:12:12;;;;;;;11.70;4.30;;;;;;;;;;5030373;28;20041;-66
2023/12/24 05:14:38;;;;;;;11.47;4.17;;;;;;;;;;5030585;28;20050;-66
2023/12/24 05:17:04;;;;;;;12.23;4.70;;;;;;;;;;5030287;28;20463;-66
2023/12/24 05:19:30;;;;;;;8.90;3.97;;;;;;;;;;5030011;28;20046;-66
2023/12/24 05:21:57;;;;;;;7.87;4.60;;;;;;;;;;5030002;28;20487;-66
2023/12/24 05:24:23;;;;;;;9.80;4.80;;;;;;;;;;5029862;28;20530;-66
2023/12/24 05:26:49;;;;;;;9.43;4.43;;;;;;;;;;5029543;28;20072;-65
2023/12/24 05:29:15;;;;;;;8.80;5.30;;;;;;;;;;5029294;28;20076;-66
2023/12/24 05:31:42;;;;;;;8.80;4.47;;;;;;;;;;5029427;28;20052;-66
2023/12/24 05:34:08;;;;;;;7.60;4.40;;;;;;;;;;5030233;28;20060;-66
2023/12/24 05:36:36;;;;;;;8.27;4.17;;;;;;;;;;5029847;28;20055;-66
2023/12/24 05:39:03;;;;;;;9.77;4.83;;;;;;;;;;5028761;28;20128;-66
2023/12/24 05:41:29;;;;;;;14.97;5.97;;;;;;;;;;5029788;28;20500;-66
2023/12/24 05:43:55;;;;;;;10.87;4.80;;;;;;;;;;5029009;28;20099;-66
2023/12/24 05:46:23;;;;;;;10.70;4.93;;;;;;;;;;5029483;28;20045;-66
2023/12/24 05:48:49;;;;;;;12.40;5.50;;;;;;;;;;5029553;28;20099;-66
2023/12/24 05:51:15;;;;;;;13.20;4.67;;;;;;;;;;5029620;28;20439;-66
2023/12/24 05:53:41;;;;;;;11.10;6.07;;;;;;;;;;5029101;28;20454;-66
2023/12/24 05:56:08;;;;;;;13.13;5.73;;;;;;;;;;5029505;28;20484;-66
2023/12/24 05:58:34;;;;;;;15.17;6.30;;;;;;;;;;5028566;28;20176;-66
2023/12/24 06:01:00;;;;;;;16.60;6.67;;;;;;;;;;5029767;28;20555;-66
2023/12/24 06:03:26;;;;;;;14.53;7.27;;;;;;;;;;5029661;28;20095;-66
2023/12/24 06:05:52;;;;;;;18.03;7.43;;;;;;;;;;5028421;28;20053;-66
2023/12/24 06:08:18;;;;;;;16.97;7.30;;;;;;;;;;5028756;28;20092;-66
2023/12/24 06:10:45;;;;;;;19.20;7.70;;;;;;;;;;5029279;28;20048;-66
2023/12/24 06:13:11;;;;;;;16.37;7.43;;;;;;;;;;5027470;28;20456;-66
2023/12/24 06:15:37;;;;;;;26.03;7.83;;;;;;;;;;5028380;28;20045;-66
2023/12/24 06:18:04;;;;;;;16.47;7.17;;;;;;;;;;5028742;28;20049;-66
2023/12/24 06:20:32;;;;;;;22.90;8.23;;;;;;;;;;5026729;28;20452;-66
2023/12/24 06:22:58;;;;;;;22.67;8.47;;;;;;;;;;5028826;28;20465;-66
2023/12/24 06:25:25;;;;;;;24.57;9.10;;;;;;;;;;5028719;28;20136;-66
2023/12/24 06:27:51;;;;;;;20.83;8.90;;;;;;;;;;5028888;28;20045;-66
2023/12/24 06:30:17;;;;;;;23.90;9.97;;;;;;;;;;5028995;28;20128;-66
2023/12/24 06:32:44;;;;;;;30.73;10.80;;;;;;;;;;5028942;28;20065;-66
2023/12/24 06:35:10;;;;;;;32.87;9.77;;;;;;;;;;5028683;28;20072;-66
2023/12/24 06:37:36;;;;;;;31.40;10.93;;;;;;;;;;5028618;28;20048;-66
2023/12/24 06:40:05;;;;;;;28.17;9.87;;;;;;;;;;5028686;28;20111;-66
2023/12/24 06:42:31;;;;;;;26.37;10.13;;;;;;;;;;5028585;28;20234;-66
2023/12/24 06:44:57;;;;;;;46.00;13.53;;;;;;;;;;5028643;28;20078;-66
2023/12/24 06:47:23;;;;;;;36.63;11.27;;;;;;;;;;5028878;28;20052;-66
2023/12/24 06:49:51;;;;;;;29.00;10.03;;;;;;;;;;5027500;28;20049;-66
2023/12/24 06:52:19;;;;;;;26.53;10.10;;;;;;;;;;5027640;28;20103;-66
2023/12/24 06:54:45;;;;;;;38.37;11.10;;;;;;;;;;5028085;28;20052;-65
2023/12/24 06:57:11;;;;;;;47.90;12.23;;;;;;;;;;5028342;28;20455;-66
2023/12/24 06:59:37;;;;;;;28.90;10.07;;;;;;;;;;5027988;28;20103;-66
2023/12/24 07:02:03;;;;;;;29.83;8.80;;;;;;;;;;5028709;28;20041;-66
2023/12/24 07:04:29;;;;;;;28.93;9.40;;;;;;;;;;5028862;28;20384;-66
2023/12/24 07:06:57;;;;;;;29.20;8.63;;;;;;;;;;5027694;28;20095;-66
2023/12/24 07:09:23;;;;;;;28.30;8.40;;;;;;;;;;5028565;28;20050;-66
2023/12/24 07:11:49;;;;;;;30.00;9.57;;;;;;;;;;5028704;28;20132;-66
2023/12/24 07:14:16;;;;;;;25.70;8.77;;;;;;;;;;5028192;28;20502;-66
2023/12/24 07:16:46;;;;;;;37.20;9.53;;;;;;;;;;5028376;28;20145;-66
2023/12/24 07:19:12;;;;;;;32.73;9.57;;;;;;;;;;5027448;28;20037;-66
2023/12/24 07:21:38;;;;;;;26.93;7.87;;;;;;;;;;5027545;28;20132;-65
2023/12/24 07:24:05;;;;;;;24.40;8.40;;;;;;;;;;5028760;28;20125;-65
2023/12/24 07:26:31;;;;;;;36.03;9.90;;;;;;;;;;5027612;28;20521;-65
2023/12/24 07:28:57;;;;;;;34.90;10.13;;;;;;;;;;5024965;28;20085;-66
2023/12/24 07:31:23;;;;;;;42.07;13.70;;;;;;;;;;5027695;28;20158;-65
2023/12/24 07:33:51;;;;;;;32.10;9.60;;;;;;;;;;5027229;28;20407;-66
2023/12/24 07:36:17;;;;;;;30.87;8.87;;;;;;;;;;5026960;28;20053;-66
2023/12/24 07:38:43;;;;;;;37.83;10.07;;;;;;;;;;5027635;28;20052;-65
2023/12/24 07:41:09;;;;;;;31.33;11.03;;;;;;;;;;5028096;28;20052;-66
2023/12/24 07:43:35;;;;;;;33.90;8.87;;;;;;;;;;5027617;28;20068;-65
2023/12/24 07:46:01;;;;;;;42.63;9.50;;;;;;;;;;5027843;28;20077;-65
2023/12/24 07:48:27;;;;;;;28.87;7.40;;;;;;;;;;5026710;28;20476;-66
2023/12/24 07:50:53;;;;;;;40.23;9.17;;;;;;;;;;5028058;28;20542;-66
2023/12/24 07:53:19;;;;;;;34.70;8.27;;;;;;;;;;5027413;28;20050;-66
2023/12/24 07:55:47;;;;;;;30.30;7.00;;;;;;;;;;5027885;28;20049;-66
2023/12/24 07:58:13;;;;;;;24.43;7.27;;;;;;;;;;5028248;28;20053;-66
2023/12/24 08:00:39;;;;;;;34.40;8.37;;;;;;;;;;5026865;28;20064;-66
2023/12/24 08:03:05;;;;;;;39.13;7.33;;;;;;;;;;5026847;28;20041;-66
2023/12/24 08:05:31;;;;;;;25.27;6.90;;;;;;;;;;5026753;28;20106;-66
2023/12/24 08:07:57;;;;;;;21.93;5.90;;;;;;;;;;5030053;28;20041;-65
2023/12/24 08:10:23;;;;;;;26.10;6.50;;;;;;;;;;5031098;28;20049;-65
2023/12/24 08:12:49;;;;;;;30.80;7.50;;;;;;;;;;5031644;28;20514;-66
2023/12/24 08:15:17;;;;;;;28.67;6.93;;;;;;;;;;5031725;28;20038;-65
2023/12/24 08:17:43;;;;;;;27.10;7.43;;;;;;;;;;5030290;28;20107;-65
2023/12/24 08:20:09;;;;;;;38.93;7.87;;;;;;;;;;5031162;28;20486;-66
2023/12/24 08:22:35;;;;;;;29.17;8.00;;;;;;;;;;5030638;28;20514;-66
2023/12/24 08:25:01;;;;;;;39.57;9.63;;;;;;;;;;5031022;28;20491;-65
2023/12/24 08:27:27;;;;;;;29.93;7.20;;;;;;;;;;5031063;28;20125;-66
2023/12/24 08:29:55;;;;;;;32.50;7.70;;;;;;;;;;5030439;28;20446;-66
2023/12/24 08:32:21;;;;;;;29.97;7.97;;;;;;;;;;5030832;28;20125;-66
2023/12/24 08:34:51;;;;;;;30.93;8.27;;;;;;;;;;5030266;28;20136;-66
2023/12/24 08:37:17;;;;;;;30.00;6.73;;;;;;;;;;5030814;28;20049;-66
2023/12/24 08:39:45;;;;;;;28.20;7.33;;;;;;;;;;5029601;28;20099;-66
2023/12/24 08:42:11;;;;;;;27.57;6.87;;;;;;;;;;5030648;28;20136;-66
2023/12/24 08:44:37;;;;;;;25.43;6.53;;;;;;;;;;5031093;28;20129;-66
2023/12/24 08:47:05;;;;;;;34.17;8.20;;;;;;;;;;5030382;28;20041;-66
2023/12/24 08:49:30;;;;;;;29.80;7.13;;;;;;;;;;5034096;28;20049;-66
2023/12/24 08:51:56;;;;;;;28.53;7.17;;;;;;;;;;5038636;28;20396;-66
2023/12/24 08:54:24;;;;;;;34.43;7.00;;;;;;;;;;5041727;28;20739;-66
2023/12/24 08:56:53;;;;;;;34.17;7.53;;;;;;;;;;5037221;28;20045;-66
2023/12/24 08:59:19;;;;;;;31.40;8.03;;;;;;;;;;5037079;28;20046;-65
2023/12/24 09:01:49;;;;;;;31.57;7.63;;;;;;;;;;5038423;28;20522;-66
2023/12/24 09:04:16;;;;;;;29.73;6.67;;;;;;;;;;5042484;28;20534;-66
2023/12/24 09:06:44;;;;;;;26.10;7.57;;;;;;;;;;5033566;28;20052;-66
2023/12/24 09:09:12;;;;;;;29.73;7.77;;;;;;;;;;5037080;28;20522;-65
2023/12/24 09:11:38;;;;;;;28.03;8.03;;;;;;;;;;5038778;28;20507;-65
2023/12/24 09:14:04;;;;;;;23.93;6.83;;;;;;;;;;5039858;28;20045;-65
2023/12/24 09:16:30;;;;;;;21.93;6.87;;;;;;;;;;5039124;28;20045;-66
2023/12/24 09:18:58;;;;;;;34.37;6.57;;;;;;;;;;5040005;28;20411;-66
2023/12/24 09:21:26;;;;;;;24.03;7.40;;;;;;;;;;5038932;28;20042;-66
2023/12/24 09:23:54;;;;;;;28.00;7.47;;;;;;;;;;5039715;28;20167;-65
2023/12/24 09:26:20;;;;;;;19.50;7.23;;;;;;;;;;5033852;28;20135;-66
2023/12/24 09:28:46;;;;;;;24.43;7.37;;;;;;;;;;5034375;28;20041;-66
2023/12/24 09:31:12;;;;;;;25.43;6.10;;;;;;;;;;5040208;28;20124;-65
2023/12/24 09:33:38;;;;;;;20.43;6.37;;;;;;;;;;5044619;28;20545;-66
2023/12/24 09:36:07;;;;;;;22.30;7.20;;;;;;;;;;5042292;28;20048;-66
2023/12/24 09:38:33;;;;;;;25.03;7.00;;;;;;;;;;5037624;28;20037;-66
2023/12/24 09:41:02;;;;;;;30.27;6.53;;;;;;;;;;5036273;28;20041;-65
2023/12/24 09:43:31;;;;;;;23.47;5.63;;;;;;;;;;5037821;28;20084;-66
2023/12/24 09:45:58;;;;;;;22.60;6.57;;;;;;;;;;5037631;28;20111;-66
2023/12/24 09:48:24;;;;;;;25.03;6.07;;;;;;;;;;5036489;28;20499;-66
2023/12/24 09:50:49;;;;;;;20.77;4.83;;;;;;;;;;5038195;28;20091;-66
2023/12/24 09:53:18;;;;;;;30.40;6.53;;;;;;;;;;5044077;28;20410;-66
2023/12/24 09:55:44;;;;;;;23.10;5.20;;;;;;;;;;5038220;28;20071;-66
2023/12/24 09:58:12;;;;;;;30.53;5.23;;;;;;;;;;5036292;28;20072;-65
2023/12/24 10:00:38;;;;;;;22.70;4.57;;;;;;;;;;5038811;28;20053;-65
2023/12/24 10:03:04;;;;;;;14.20;4.67;;;;;;;;;;5035350;28;20147;-65
2023/12/24 10:05:30;;;;;;;25.63;5.20;;;;;;;;;;5041846;28;20398;-65
2023/12/24 10:07:56;;;;;;;20.30;6.00;;;;;;;;;;5035376;28;20042;-66
2023/12/24 10:10:32;;;;;;;21.73;5.50;;;;;;;;;;5035552;28;20037;-66
2023/12/24 10:13:07;;;;;;;23.63;5.40;;;;;;;;;;5033342;28;20041;-65
2023/12/24 10:15:38;;;;;;;20.40;4.83;;;;;;;;;;5037344;28;20037;-65
2023/12/24 10:18:17;;;;;;;25.37;5.53;;;;;;;;;;5038243;28;20500;-65
2023/12/24 10:20:43;;;;;;;19.20;6.33;;;;;;;;;;5036386;28;20045;-65
2023/12/24 10:23:09;;;;;;;24.90;5.50;;;;;;;;;;5034347;28;20041;-65
2023/12/24 10:25:35;;;;;;;20.73;5.23;;;;;;;;;;5039592;28;20048;-65
2023/12/24 10:28:05;;;;;;;16.20;5.33;;;;;;;;;;5032733;28;20049;-65
2023/12/24 10:30:34;;;;;;;24.17;5.57;;;;;;;;;;5024546;28;20859;-65
2023/12/24 10:33:11;;;;;;;17.43;4.63;;;;;;;;;;5036271;28;20495;-65
2023/12/24 10:35:37;;;;;;;20.13;5.17;;;;;;;;;;5037673;28;20446;-65
2023/12/24 10:38:15;;;;;;;25.97;5.70;;;;;;;;;;5038625;28;20033;-65
2023/12/24 10:40:41;;;;;;;22.80;5.57;;;;;;;;;;5037776;28;20049;-64
2023/12/24 10:43:07;;;;;;;18.00;4.87;;;;;;;;;;5036226;28;20140;-65
2023/12/24 10:45:33;;;;;;;17.73;4.60;;;;;;;;;;5040932;28;20482;-65
2023/12/24 10:47:59;;;;;;;20.80;4.53;;;;;;;;;;5036130;28;20093;-64
2023/12/24 10:50:25;;;;;;;16.23;3.97;;;;;;;;;;5038943;28;20403;-64
2023/12/24 10:52:51;;;;;;;15.90;4.27;;;;;;;;;;5040601;28;20091;-64
2023/12/24 10:55:17;;;;;;;21.73;4.73;;;;;;;;;;5033568;28;20143;-65
2023/12/24 10:58:07;;;;;;;18.80;4.37;;;;;;;;;;5040923;28;20037;-65
2023/12/24 11:00:33;;;;;;;15.17;4.13;;;;;;;;;;5037723;28;20689;-65
2023/12/24 11:02:59;;;;;;;15.17;3.70;;;;;;;;;;5038716;28;20182;-64
2023/12/24 11:05:42;;;;;;;17.10;4.03;;;;;;;;;;5039820;28;20210;-64
2023/12/24 11:08:31;;;;;;;16.77;3.87;;;;;;;;;;5036841;28;20052;-65
2023/12/24 11:11:06;;;;;;;20.93;4.50;;;;;;;;;;5029492;28;20045;-65
2023/12/24 11:13:32;;;;;;;20.10;4.50;;;;;;;;;;5027477;28;20411;-65
2023/12/24 11:16:03;;;;;;;15.37;3.47;;;;;;;;;;5035261;28;20098;-65
2023/12/24 11:18:49;;;;;;;21.60;4.40;;;;;;;;;;5037420;28;20484;-65
2023/12/24 11:21:22;;;;;;;11.80;4.23;;;;;;;;;;5031812;28;20049;-65
2023/12/24 11:24:07;;;;;;;18.57;4.80;;;;;;;;;;5031877;28;20060;-65
2023/12/24 11:26:33;;;;;;;24.13;4.83;;;;;;;;;;5034418;28;20046;-65
2023/12/24 11:28:59;;;;;;;19.37;4.50;;;;;;;;;;5035721;28;20047;-64
2023/12/24 11:31:28;;;;;;;27.97;5.23;;;;;;;;;;5034918;28;20045;-65
2023/12/24 11:33:55;;;;;;;21.10;4.80;;;;;;;;;;5039950;28;20072;-65
2023/12/24 11:36:22;;;;;;;18.97;4.50;;;;;;;;;;5033484;28;20041;-65
2023/12/24 11:38:53;;;;;;;17.63;4.30;;;;;;;;;;5037981;28;20435;-64
2023/12/24 11:41:20;;;;;;;23.87;4.40;;;;;;;;;;5034551;28;20083;-65
2023/12/24 11:43:59;;;;;;;18.97;6.17;;;;;;;;;;5041801;28;20056;-64
2023/12/24 11:46:29;;;;;;;18.27;4.03;;;;;;;;;;5039280;28;20052;-65
2023/12/24 11:48:56;;;;;;;17.63;4.50;;;;;;;;;;5040744;28;20059;-65
2023/12/24 11:51:26;;;;;;;23.00;5.77;;;;;;;;;;5043314;28;20072;-64
2023/12/24 11:54:03;;;;;;;18.23;4.77;;;;;;;;;;5035079;28;20049;-65
2023/12/24 11:56:30;;;;;;;18.43;4.63;;;;;;;;;;5040232;28;20045;-65
2023/12/24 11:58:56;;;;;;;22.53;4.57;;;;;;;;;;5040675;28;20045;-65
2023/12/24 12:01:26;;;;;;;20.83;5.23;;;;;;;;;;5043008;28;20115;-65
2023/12/24 12:04:05;;;;;;;19.13;4.20;;;;;;;;;;5038020;28;20041;-65
2023/12/24 12:06:35;;;;;;;20.67;4.63;;;;;;;;;;5037690;28;20124;-66
2023/12/24 12:09:05;;;;;;;18.33;4.90;;;;;;;;;;5041035;28;20040;-65
2023/12/24 12:11:31;;;;;;;24.60;4.07;;;;;;;;;;5038320;28;20045;-65
2023/12/24 12:14:01;;;;;;;23.73;5.20;;;;;;;;;;5040058;28;20048;-65
2023/12/24 12:16:27;;;;;;;22.27;4.53;;;;;;;;;;5036592;28;20043;-65
2023/12/24 12:18:53;;;;;;;15.00;4.07;;;;;;;;;;5038252;28;20046;-65
2023/12/24 12:21:19;;;;;;;16.47;4.27;;;;;;;;;;5038001;28;20048;-65
2023/12/24 12:23:45;;;;;;;17.90;4.27;;;;;;;;;;5040024;28;20041;-65
2023/12/24 12:26:13;;;;;;;21.80;5.77;;;;;;;;;;5040012;28;21142;-66
2023/12/24 12:28:39;;;;;;;20.53;4.77;;;;;;;;;;5040813;28;20063;-65
2023/12/24 12:31:05;;;;;;;17.10;4.03;;;;;;;;;;5041371;28;20048;-66
2023/12/24 12:33:31;;;;;;;25.30;4.27;;;;;;;;;;5039065;28;20534;-66
2023/12/24 12:35:57;;;;;;;14.60;3.83;;;;;;;;;;5040741;28;20060;-66
2023/12/24 12:38:23;;;;;;;16.13;4.23;;;;;;;;;;5040069;28;20050;-66
2023/12/24 12:40:51;;;;;;;18.40;4.60;;;;;;;;;;5035679;28;20083;-66
2023/12/24 12:43:17;;;;;;;20.30;5.37;;;;;;;;;;5037963;28;20081;-66
2023/12/24 12:45:43;;;;;;;17.33;4.67;;;;;;;;;;5038848;28;20041;-66
2023/12/24 12:48:09;;;;;;;20.90;4.93;;;;;;;;;;5041740;28;20052;-65
2023/12/24 12:50:35;;;;;;;20.23;4.33;;;;;;;;;;5038222;28;20073;-66
2023/12/24 12:53:01;;;;;;;17.33;4.70;;;;;;;;;;5035675;28;20201;-66
2023/12/24 12:55:28;;;;;;;17.70;5.10;;;;;;;;;;5041439;28;20194;-65
2023/12/24 12:57:54;;;;;;;20.70;5.37;;;;;;;;;;5031863;28;20047;-65
2023/12/24 13:00:21;;;;;;;16.00;4.83;;;;;;;;;;5041065;28;20144;-65
2023/12/24 13:02:47;;;;;;;20.43;5.17;;;;;;;;;;5038686;28;20044;-66
2023/12/24 13:05:45;;;;;;;22.87;6.40;;;;;;;;;;5034082;28;21048;-66
2023/12/24 13:08:15;;;;;;;22.87;5.53;;;;;;;;;;5015205;28;20061;-65
2023/12/24 13:10:43;;;;;;;26.13;6.37;;;;;;;;;;5039823;28;20052;-65
2023/12/24 13:13:17;;;;;;;22.97;5.93;;;;;;;;;;5036783;28;20075;-65
2023/12/24 13:15:44;;;;;;;15.30;5.50;;;;;;;;;;5038171;28;20046;-65
2023/12/24 13:18:17;;;;;;;31.00;7.27;;;;;;;;;;5038136;28;20415;-66
2023/12/24 13:20:53;;;;;;;23.17;7.10;;;;;;;;;;5038599;28;20037;-67
2023/12/24 13:23:20;;;;;;;31.27;7.63;;;;;;;;;;5035567;28;20056;-66
2023/12/24 13:25:46;;;;;;;22.80;6.63;;;;;;;;;;5036127;28;20463;-66
2023/12/24 13:28:13;;;;;;;29.80;8.60;;;;;;;;;;5038473;28;20041;-66
2023/12/24 13:30:40;;;;;;;23.37;6.63;;;;;;;;;;5039561;28;20048;-67
2023/12/24 13:33:06;;;;;;;21.13;7.23;;;;;;;;;;5034857;28;20107;-67
2023/12/24 13:35:34;;;;;;;26.90;6.93;;;;;;;;;;5033365;28;20049;-66
2023/12/24 13:38:00;;;;;;;28.47;8.37;;;;;;;;;;5036343;28;20415;-67
2023/12/24 13:40:28;;;;;;;34.97;8.53;;;;;;;;;;5039476;28;20041;-67
2023/12/24 13:42:54;;;;;;;34.43;8.80;;;;;;;;;;5034700;28;20569;-67
2023/12/24 13:45:20;;;;;;;28.93;9.43;;;;;;;;;;5037862;28;20053;-67
2023/12/24 13:47:46;;;;;;;25.00;8.37;;;;;;;;;;5037081;28;20037;-66
2023/12/24 13:50:12;;;;;;;27.27;7.63;;;;;;;;;;5040939;28;20045;-67
2023/12/24 13:52:40;;;;;;;35.27;8.97;;;;;;;;;;5041790;28;20041;-67
2023/12/24 13:55:06;;;;;;;23.27;8.27;;;;;;;;;;5034810;28;20671;-67
2023/12/24 13:57:34;;;;;;;33.87;8.47;;;;;;;;;;5039902;28;20041;-67
2023/12/24 14:00:03;;;;;;;32.57;8.57;;;;;;;;;;5037198;28;20040;-66
2023/12/24 14:02:31;;;;;;;26.00;6.80;;;;;;;;;;5033965;28;20045;-67
2023/12/24 14:04:57;;;;;;;27.87;7.37;;;;;;;;;;5040378;28;20041;-66
2023/12/24 14:07:23;;;;;;;35.37;8.73;;;;;;;;;;5039171;28;20045;-67
2023/12/24 14:09:49;;;;;;;28.50;6.27;;;;;;;;;;5037723;28;20048;-67
2023/12/24 14:12:15;;;;;;;33.87;6.03;;;;;;;;;;5035886;28;20037;-69
2023/12/24 14:14:41;;;;;;;20.17;5.50;;;;;;;;;;5037770;28;20048;-67
2023/12/24 14:17:07;;;;;;;24.13;5.90;;;;;;;;;;5038526;28;20063;-67
2023/12/24 14:19:33;;;;;;;18.80;5.30;;;;;;;;;;5039894;28;20123;-68
2023/12/24 14:21:59;;;;;;;17.03;4.67;;;;;;;;;;5036460;28;20132;-67
2023/12/24 14:24:27;;;;;;;33.70;4.60;;;;;;;;;;5034972;28;20388;-68
2023/12/24 14:26:53;;;;;;;18.97;3.80;;;;;;;;;;5034578;28;20210;-67
2023/12/24 14:29:28;;;;;;;18.67;3.53;;;;;;;;;;5035492;28;20105;-67
2023/12/24 14:31:55;;;;;;;18.63;3.13;;;;;;;;;;5036706;28;20132;-68